Detall de PIREP

Printer-friendly versionPDF version

[2012/11/19 08:51:00]
Flight IATA:CT2110
Pilot Number:041
Company ICAO:CAT
Aircraft Type:A343/E
PAX:213
Departing Airport: LEVC
Destination Airport: LEST
Alternate Airport:LEMG
Online: VATSIM
Route:CENTA A33 PRADO UN733 FORNO
Flight Level:F290
No Slew and time accel
No pause
Crash detect
Detect pilot in Cockpit between each 30 and 45 minutes
08:51 Zero fuel Weight: 384679 Lbs, Fuel Weight: 36521 Lbs
08:51 VATSIM:LEVC 190700Z VRB02KT 9999 FEW030 13/11 Q1015 NOSIG
08:51 VATSIM:LEST 190700Z 14003KT 9000 4000SE VCFG BKN018 06/06 Q1015 TEMPO 0900 FG SCT004
08:51 VOICE CATALONIAN
08:53 Parking Brakes off
08:59 Take-off
08:59 Take off Weight: 419611 Lbs
08:59 Wind: 241º @ 002 Knots Heading: 295º
08:59 POS N39º 29´ 30´´ W000º 29´ 20´´
08:59 Gear Up: 195 Knots
08:59 Flaps:3 at 195 Knots
08:59 Flaps:1 at 221 Knots
08:59 Flaps:2 at 224 Knots
08:59 Flaps:3 at 225 Knots
08:59 Flaps:2 at 225 Knots
08:59 Flaps:1 at 226 Knots
08:59 Flaps:2 at 227 Knots
08:59 Flaps:1 at 228 Knots
08:59 Flaps:0 at 231 Knots
09:11 TOC
09:11 Fuel Weight: 29536 Lb
09:14 Wind:219º@000 Knots Heading: 298º Ground Speed: 444 Knots Altitude 29104 ft
09:29 Wind:224º@000 Knots Heading: 296º Ground Speed: 449 Knots Altitude 29015 ft
09:44 Wind:230º@000 Knots Heading: 304º Ground Speed: 447 Knots Altitude 29114 ft
09:50 TOD
09:50 Fuel Weight: 19930 Lb
09:59 Wind:133º@003 Knots Heading: 263º Ground Speed: 309 Knots Altitude 14350 ft
10:08 Flaps:1 at 225 Knots
10:08 Flaps:2 at 205 Knots
10:08 Flaps:1 at 204 Knots
10:08 Flaps:2 at 203 Knots
10:08 Flaps:3 at 201 Knots
10:09 Gear Down: 179 Knots
10:09 Flaps:4 at 168 Knots
10:09 Flaps:5 at 151 Knots
10:12 TouchDown:Rate -277 ft/min Speed: 132 Knots
10:12 Flaps:0 at 29 Knots
10:12 VATSIM:LEST 190930Z 12004KT 080V150 9999 BKN022 08/07 Q1015 NOSIG
10:12 Land
10:12 Wind:120º@004 Knots
10:12 Heading: 345º
10:12 Flight Duration: 01:13
10:12 Landing Weight: 402666 Lbs
10:12 POS N42º 53´ 37´´ W008º 24´ 51´´
10:15 Parking brakes on
10:15 Block to Block Duration: 01:22
10:15 Final Fuel: 17550 Lbls
10:15 Spent Fuel: 18970 Lbls
10:15 Flight Length: 466 NM
10:15 TOD Land Length: 104 NM

Exportar CSV

Powered by Drupal - Modified by Danger4k